createdAt,value
2018-12-26T00:02:16.073Z,15.37
2018-12-26T00:05:04.309Z,15.87
2018-12-26T00:07:45.444Z,17.83
2018-12-26T00:10:33.449Z,16.23
2018-12-26T00:13:16.241Z,17.50
2018-12-26T00:16:04.265Z,17.47
2018-12-26T00:18:45.408Z,16.20
2018-12-26T00:21:33.518Z,15.97
2018-12-26T00:24:14.159Z,13.93
2018-12-26T00:27:02.074Z,14.53
2018-12-26T00:29:45.215Z,14.30
2018-12-26T00:32:33.389Z,14.50
2018-12-26T00:35:14.297Z,14.57
2018-12-26T00:38:02.665Z,13.70
2018-12-26T00:40:43.665Z,13.73
2018-12-26T00:43:32.172Z,13.63
2018-12-26T00:46:12.945Z,13.97
2018-12-26T00:49:00.996Z,15.83
2018-12-26T00:51:42.132Z,15.43
2018-12-26T00:54:30.459Z,14.83
2018-12-26T00:57:10.992Z,16.67
2018-12-26T00:59:58.819Z,16.33
2018-12-26T01:02:41.967Z,15.33
2018-12-26T01:05:30.130Z,16.00
2018-12-26T01:08:11.232Z,16.33
2018-12-26T01:10:59.160Z,15.60
2018-12-26T01:13:40.051Z,13.13
2018-12-26T01:16:28.247Z,17.00
2018-12-26T01:19:08.982Z,17.50
2018-12-26T01:21:57.038Z,16.93
2018-12-26T01:24:38.553Z,16.30
2018-12-26T01:27:07.559Z,18.23
2018-12-26T01:29:48.839Z,16.60
2018-12-26T01:32:36.860Z,16.40
2018-12-26T01:35:17.653Z,17.77
2018-12-26T01:38:05.829Z,16.93
2018-12-26T01:40:46.493Z,16.50
2018-12-26T01:43:34.563Z,17.83
2018-12-26T01:46:15.407Z,17.40
2018-12-26T01:49:03.569Z,17.23
2018-12-26T01:51:44.362Z,16.97
2018-12-26T01:54:32.499Z,17.80
2018-12-26T01:57:13.610Z,17.27
2018-12-26T02:00:01.807Z,17.43
2018-12-26T02:02:42.583Z,18.07
2018-12-26T02:05:30.720Z,17.53
2018-12-26T02:08:11.555Z,17.20
2018-12-26T02:10:59.617Z,18.47
2018-12-26T02:13:40.833Z,18.13
2018-12-26T02:16:09.471Z,19.57
2018-12-26T02:18:52.188Z,18.10
2018-12-26T02:21:40.867Z,18.23
2018-12-26T02:24:22.025Z,17.83
2018-12-26T02:27:10.062Z,18.50
2018-12-26T02:29:51.370Z,17.13
2018-12-26T02:32:39.664Z,18.57
2018-12-26T02:35:22.512Z,17.87
2018-12-26T02:38:10.481Z,17.90
2018-12-26T02:40:51.508Z,18.63
2018-12-26T02:43:39.681Z,17.77
2018-12-26T02:46:20.842Z,18.60
2018-12-26T02:49:08.965Z,16.83
2018-12-26T02:51:49.985Z,17.27
2018-12-26T02:54:38.332Z,20.13
2018-12-26T02:57:20.826Z,18.57
2018-12-26T03:00:09.026Z,20.07
2018-12-26T03:02:49.941Z,18.70
2018-12-26T03:05:38.036Z,19.33
2018-12-26T03:08:06.837Z,18.87
2018-12-26T03:10:55.045Z,19.70
2018-12-26T03:13:35.869Z,18.93
2018-12-26T03:16:23.876Z,19.47
2018-12-26T03:19:05.195Z,20.13
2018-12-26T03:21:53.209Z,19.70
2018-12-26T03:24:34.041Z,19.17
2018-12-26T03:27:23.168Z,21.20
2018-12-26T03:30:04.411Z,20.90
2018-12-26T03:32:52.431Z,20.40
2018-12-26T03:35:33.389Z,21.37
2018-12-26T03:38:21.463Z,20.77
2018-12-26T03:41:02.300Z,20.97
2018-12-26T03:43:50.664Z,21.93
2018-12-26T03:46:33.057Z,21.80
2018-12-26T03:49:21.695Z,20.60
2018-12-26T03:52:02.293Z,22.73
2018-12-26T03:54:50.626Z,22.37
2018-12-26T03:57:33.231Z,22.50
2018-12-26T04:00:21.456Z,23.03
2018-12-26T04:03:01.918Z,22.43
2018-12-26T04:05:49.986Z,24.13
2018-12-26T04:08:30.975Z,24.93
2018-12-26T04:11:19.289Z,24.10
2018-12-26T04:13:59.943Z,24.77
2018-12-26T04:16:47.969Z,23.77
2018-12-26T04:19:30.495Z,26.30
2018-12-26T04:22:18.828Z,25.23
2018-12-26T04:25:02.016Z,25.70
2018-12-26T04:27:49.953Z,24.63
2018-12-26T04:30:30.709Z,26.63
2018-12-26T04:33:18.635Z,25.73
2018-12-26T04:36:01.301Z,27.87
2018-12-26T04:38:49.438Z,25.10
2018-12-26T04:41:30.275Z,26.20
2018-12-26T04:44:18.261Z,27.13
2018-12-26T04:46:59.345Z,25.40
2018-12-26T04:49:47.268Z,27.33
2018-12-26T04:52:28.297Z,25.90
2018-12-26T04:55:16.387Z,25.47
2018-12-26T04:57:57.541Z,25.90
2018-12-26T05:00:45.687Z,25.97
2018-12-26T05:03:26.441Z,25.43
2018-12-26T05:06:14.384Z,27.67
2018-12-26T05:08:55.336Z,26.03
2018-12-26T05:11:43.372Z,28.47
2018-12-26T05:14:24.010Z,23.97
2018-12-26T05:17:12.056Z,28.47
2018-12-26T05:19:54.859Z,28.00
2018-12-26T05:22:43.673Z,26.90
2018-12-26T05:25:22.760Z,26.80
2018-12-26T05:28:11.846Z,29.13
2018-12-26T05:30:52.342Z,28.60
2018-12-26T05:33:40.288Z,30.30
2018-12-26T05:36:21.547Z,28.00
2018-12-26T05:39:09.632Z,29.10
2018-12-26T05:41:50.771Z,27.77
2018-12-26T05:44:38.569Z,28.57
2018-12-26T05:47:19.650Z,28.67
2018-12-26T05:50:07.654Z,28.23
2018-12-26T05:52:48.215Z,29.70
2018-12-26T05:55:36.508Z,30.70
2018-12-26T05:58:39.276Z,28.13
2018-12-26T06:01:27.400Z,27.97
2018-12-26T06:04:08.591Z,26.03
2018-12-26T06:06:56.492Z,27.73
2018-12-26T06:09:37.177Z,28.97
2018-12-26T06:12:25.331Z,27.63
2018-12-26T06:15:06.423Z,28.50
2018-12-26T06:17:54.500Z,28.13
2018-12-26T06:20:35.713Z,27.80
2018-12-26T06:23:23.837Z,27.80
2018-12-26T06:26:05.063Z,28.90
2018-12-26T06:28:53.024Z,29.20
2018-12-26T06:31:33.899Z,30.63
2018-12-26T06:34:21.993Z,28.73
2018-12-26T06:37:03.394Z,31.07
2018-12-26T06:39:51.381Z,31.47
2018-12-26T06:42:32.639Z,29.67
2018-12-26T06:45:20.585Z,31.77
2018-12-26T06:48:01.970Z,31.33
2018-12-26T06:50:50.236Z,31.03
2018-12-26T06:53:31.238Z,32.63
2018-12-26T06:56:19.325Z,30.60
2018-12-26T06:59:00.175Z,32.63
2018-12-26T07:01:48.035Z,35.17
2018-12-26T07:04:29.461Z,34.40
2018-12-26T07:07:18.472Z,35.40
2018-12-26T07:09:59.709Z,34.20
2018-12-26T07:12:47.685Z,35.10
2018-12-26T07:15:28.655Z,33.53
2018-12-26T07:18:16.804Z,35.70
2018-12-26T07:20:57.545Z,31.57
2018-12-26T07:23:25.926Z,35.67
2018-12-26T07:26:07.322Z,35.17
2018-12-26T07:28:55.443Z,36.47
2018-12-26T07:31:36.544Z,35.37
2018-12-26T07:34:24.567Z,36.07
2018-12-26T07:37:07.150Z,32.60
2018-12-26T07:39:55.185Z,34.20
2018-12-26T07:42:36.054Z,37.33
2018-12-26T07:45:25.448Z,34.50
2018-12-26T07:48:06.446Z,36.93
2018-12-26T07:50:54.364Z,36.37
2018-12-26T07:53:33.289Z,35.33
2018-12-26T07:56:21.268Z,35.07
2018-12-26T07:59:02.310Z,36.57
2018-12-26T08:01:50.399Z,34.17
2018-12-26T08:04:31.335Z,35.03
2018-12-26T08:07:19.263Z,35.20
2018-12-26T08:09:59.797Z,35.20
2018-12-26T08:12:47.806Z,34.47
2018-12-26T08:15:30.924Z,32.50
2018-12-26T08:18:19.580Z,34.80
2018-12-26T08:21:00.484Z,33.47
2018-12-26T08:23:48.628Z,34.30
2018-12-26T08:26:29.861Z,35.47
2018-12-26T08:29:17.830Z,34.13
2018-12-26T08:31:58.780Z,33.57
2018-12-26T08:34:47.422Z,33.63
2018-12-26T08:37:28.785Z,33.43
2018-12-26T08:40:16.727Z,33.80
2018-12-26T08:42:57.559Z,33.13
2018-12-26T08:45:45.336Z,32.43
2018-12-26T08:48:26.476Z,33.57
2018-12-26T08:51:14.312Z,32.43
2018-12-26T08:53:54.930Z,32.80
2018-12-26T08:56:42.882Z,32.10
2018-12-26T08:59:24.171Z,31.20
2018-12-26T09:02:12.333Z,31.97
2018-12-26T09:04:53.395Z,32.60
2018-12-26T09:07:41.494Z,34.10
2018-12-26T09:10:22.005Z,32.20
2018-12-26T09:13:10.058Z,31.93
2018-12-26T09:15:51.422Z,32.33
2018-12-26T09:18:39.369Z,33.17
2018-12-26T09:21:20.378Z,38.57
2018-12-26T09:24:08.213Z,33.97
2018-12-26T09:26:50.848Z,32.40
2018-12-26T09:29:38.822Z,32.47
2018-12-26T09:32:20.176Z,32.90
2018-12-26T09:35:08.864Z,35.63
2018-12-26T09:37:49.512Z,33.83
2018-12-26T09:40:37.543Z,34.20
2018-12-26T09:43:18.227Z,34.47
2018-12-26T09:46:06.236Z,32.40
2018-12-26T09:48:47.483Z,33.67
2018-12-26T09:51:35.528Z,35.70
2018-12-26T09:54:07.537Z,33.93
2018-12-26T09:56:55.872Z,35.40
2018-12-26T09:59:37.705Z,34.13
2018-12-26T10:02:25.900Z,34.23
2018-12-26T10:05:07.553Z,34.73
2018-12-26T10:07:55.547Z,34.60
2018-12-26T10:10:37.168Z,34.33
2018-12-26T10:13:25.303Z,34.73
2018-12-26T10:16:06.179Z,34.80
2018-12-26T10:18:54.184Z,35.70
2018-12-26T10:21:35.396Z,36.33
2018-12-26T10:24:23.471Z,38.60
2018-12-26T10:27:04.587Z,35.83
2018-12-26T10:29:34.410Z,37.97
2018-12-26T10:32:15.450Z,38.13
2018-12-26T10:35:03.521Z,37.07
2018-12-26T10:37:32.090Z,35.60
2018-12-26T10:40:20.069Z,37.90
2018-12-26T10:43:02.867Z,36.50
2018-12-26T10:45:50.965Z,37.20
2018-12-26T10:48:31.662Z,39.97
2018-12-26T10:51:19.975Z,36.83
2018-12-26T10:54:00.909Z,38.53
2018-12-26T10:56:49.735Z,39.63
2018-12-26T10:59:28.856Z,40.43
2018-12-26T11:02:16.817Z,40.07
2018-12-26T11:04:58.255Z,37.20
2018-12-26T11:07:46.277Z,38.43
2018-12-26T11:10:14.861Z,39.37
2018-12-26T11:13:02.971Z,40.40
2018-12-26T11:15:43.380Z,38.97
2018-12-26T11:18:12.105Z,39.37
2018-12-26T11:20:51.141Z,40.10
2018-12-26T11:23:39.012Z,43.33
2018-12-26T11:26:20.010Z,39.90
2018-12-26T11:29:08.041Z,39.30
2018-12-26T11:31:50.946Z,38.60
2018-12-26T11:34:39.096Z,36.93
2018-12-26T11:37:20.120Z,37.17
2018-12-26T11:40:09.083Z,36.90
2018-12-26T11:42:49.644Z,36.57
2018-12-26T11:45:37.688Z,35.33
2018-12-26T11:48:18.925Z,35.00
2018-12-26T11:51:06.884Z,38.10
2018-12-26T11:53:48.295Z,37.83
2018-12-26T11:56:36.344Z,36.73
2018-12-26T11:59:17.037Z,37.27
2018-12-26T12:02:05.323Z,36.07
2018-12-26T12:04:33.849Z,38.27
2018-12-26T12:07:21.731Z,39.97
2018-12-26T12:10:02.424Z,38.13
2018-12-26T12:12:50.377Z,39.40
2018-12-26T12:15:32.827Z,38.30
2018-12-26T12:18:21.557Z,37.60
2018-12-26T12:21:02.971Z,38.90
2018-12-26T12:23:50.974Z,37.03
2018-12-26T12:26:32.708Z,36.57
2018-12-26T12:29:01.205Z,37.83
2018-12-26T12:31:42.591Z,38.93
2018-12-26T12:34:30.558Z,34.53
2018-12-26T12:37:00.781Z,35.90
2018-12-26T12:39:50.433Z,36.40
2018-12-26T12:42:31.877Z,35.23
2018-12-26T12:45:19.833Z,36.83
2018-12-26T12:48:01.029Z,35.60
2018-12-26T12:50:29.703Z,35.67
2018-12-26T12:53:10.360Z,35.27
2018-12-26T12:55:51.581Z,35.30
2018-12-26T12:58:32.721Z,33.77
2018-12-26T13:01:13.756Z,35.93
2018-12-26T13:04:01.821Z,35.37
2018-12-26T13:06:42.711Z,35.33
2018-12-26T13:09:30.759Z,37.07
2018-12-26T13:12:11.577Z,35.60
2018-12-26T13:14:59.446Z,36.47
2018-12-26T13:17:28.025Z,35.53
2018-12-26T13:20:15.877Z,35.70
2018-12-26T13:22:56.583Z,36.17
2018-12-26T13:25:44.620Z,36.00
2018-12-26T13:28:25.506Z,36.63
2018-12-26T13:31:13.470Z,35.40
2018-12-26T13:33:54.467Z,36.23
2018-12-26T13:36:42.437Z,36.53
2018-12-26T13:39:23.634Z,34.93
2018-12-26T13:42:11.729Z,35.53
2018-12-26T13:44:53.530Z,36.20
2018-12-26T13:47:41.491Z,34.67
2018-12-26T13:50:23.939Z,35.53
2018-12-26T13:52:52.482Z,34.93
2018-12-26T13:55:32.235Z,35.47
2018-12-26T13:58:20.204Z,35.30
2018-12-26T14:01:01.252Z,36.10
2018-12-26T14:03:49.131Z,36.43
2018-12-26T14:06:30.752Z,35.40
2018-12-26T14:09:18.618Z,36.17
2018-12-26T14:11:59.723Z,37.87
2018-12-26T14:14:49.489Z,35.73
2018-12-26T14:17:31.003Z,35.40
2018-12-26T14:20:18.779Z,38.03
2018-12-26T14:23:00.273Z,36.07
2018-12-26T14:25:48.614Z,37.43
2018-12-26T14:28:29.303Z,37.57
2018-12-26T14:31:17.179Z,39.37
2018-12-26T14:33:58.367Z,34.63
2018-12-26T14:36:46.200Z,37.13
2018-12-26T14:39:14.817Z,37.63
2018-12-26T14:41:55.193Z,36.73
2018-12-26T14:44:43.275Z,37.50
2018-12-26T14:47:24.401Z,37.97
2018-12-26T14:50:12.360Z,36.67
2018-12-26T14:52:53.023Z,35.20
2018-12-26T14:55:34.421Z,37.43
2018-12-26T14:58:15.565Z,36.27
2018-12-26T15:00:56.457Z,34.90
2018-12-26T15:03:44.274Z,35.70
2018-12-26T15:06:24.779Z,36.30
2018-12-26T15:08:54.015Z,37.60
2018-12-26T15:11:22.834Z,36.13
2018-12-26T15:14:10.756Z,34.57
2018-12-26T15:16:51.289Z,35.87
2018-12-26T15:19:39.312Z,34.80
2018-12-26T15:22:20.777Z,34.10
2018-12-26T15:25:08.716Z,34.50
2018-12-26T15:27:49.768Z,34.57
2018-12-26T15:30:37.718Z,36.97
2018-12-26T15:33:19.226Z,34.43
2018-12-26T15:36:07.081Z,35.23
2018-12-26T15:38:48.726Z,36.37
2018-12-26T15:41:37.465Z,35.97
2018-12-26T15:44:18.869Z,35.37
2018-12-26T15:47:06.990Z,34.60
2018-12-26T15:49:48.073Z,34.00
2018-12-26T15:52:35.882Z,35.80
2018-12-26T15:55:16.545Z,33.27
2018-12-26T15:57:57.720Z,35.87
2018-12-26T16:00:45.632Z,35.07
2018-12-26T16:03:28.115Z,36.10
2018-12-26T16:06:15.985Z,35.40
2018-12-26T16:08:58.679Z,33.87
2018-12-26T16:11:39.155Z,34.37
2018-12-26T16:14:20.799Z,32.83
2018-12-26T16:17:08.649Z,35.23
2018-12-26T16:19:49.624Z,34.70
2018-12-26T16:22:39.701Z,35.50
2018-12-26T16:25:40.015Z,42.00
2018-12-26T16:28:27.968Z,34.63
2018-12-26T16:31:09.748Z,33.53
2018-12-26T16:33:57.645Z,35.10
2018-12-26T16:36:38.556Z,33.30
2018-12-26T16:39:35.416Z,34.27
2018-12-26T16:42:17.061Z,33.30
2018-12-26T16:45:12.828Z,32.63
2018-12-26T16:47:54.050Z,33.27
2018-12-26T16:50:26.987Z,34.10
2018-12-26T16:53:15.554Z,32.73
2018-12-26T16:55:54.354Z,32.00
2018-12-26T16:58:42.257Z,33.57
2018-12-26T17:01:23.856Z,34.13
2018-12-26T17:04:11.612Z,31.53
2018-12-26T17:06:53.096Z,31.00
2018-12-26T17:09:41.199Z,31.40
2018-12-26T17:12:22.308Z,30.53
2018-12-26T17:15:10.224Z,31.27
2018-12-26T17:17:51.110Z,30.10
2018-12-26T17:20:39.164Z,30.73
2018-12-26T17:23:20.064Z,28.90
2018-12-26T17:26:07.959Z,30.87
2018-12-26T17:28:48.679Z,30.63
2018-12-26T17:31:36.838Z,29.67
2018-12-26T17:34:17.512Z,30.93
2018-12-26T17:37:05.283Z,30.00
2018-12-26T17:39:44.277Z,30.77
2018-12-26T17:42:32.372Z,31.17
2018-12-26T17:45:18.011Z,29.73
2018-12-26T17:48:05.745Z,29.33
2018-12-26T17:50:48.097Z,27.77
2018-12-26T17:54:14.771Z,28.87
2018-12-26T17:57:01.106Z,92.97
2018-12-26T18:00:16.238Z,33.00
2018-12-26T18:02:56.818Z,33.03
2018-12-26T18:05:44.815Z,29.73
2018-12-26T18:08:26.383Z,29.03
2018-12-26T18:11:14.686Z,30.53
2018-12-26T18:13:55.470Z,29.07
2018-12-26T18:16:43.828Z,38.03
2018-12-26T18:19:25.886Z,42.57
2018-12-26T18:22:14.166Z,34.53
2018-12-26T18:24:55.838Z,33.70
2018-12-26T18:27:44.445Z,34.63
2018-12-26T18:30:25.308Z,31.73
2018-12-26T18:33:13.200Z,34.77
2018-12-26T18:35:54.369Z,32.23
2018-12-26T18:38:42.555Z,33.07
2018-12-26T18:41:23.567Z,33.27
2018-12-26T18:44:11.629Z,35.37
2018-12-26T18:46:52.819Z,45.53
2018-12-26T18:49:40.750Z,34.17
2018-12-26T18:52:21.800Z,31.10
2018-12-26T18:55:02.435Z,34.30
2018-12-26T18:57:41.546Z,59.80
2018-12-26T19:00:11.279Z,36.43
2018-12-26T19:02:51.884Z,35.43
2018-12-26T19:05:39.768Z,32.37
2018-12-26T19:08:20.953Z,34.53
2018-12-26T19:11:08.796Z,33.83
2018-12-26T19:13:50.356Z,34.57
2018-12-26T19:16:38.314Z,34.20
2018-12-26T19:19:19.531Z,32.47
2018-12-26T19:22:07.838Z,106.30
2018-12-26T19:24:49.252Z,28.60
2018-12-26T19:27:37.179Z,30.13
2018-12-26T19:30:20.315Z,30.63
2018-12-26T19:33:09.351Z,30.40
2018-12-26T19:35:52.217Z,29.23
2018-12-26T19:38:40.279Z,29.20
2018-12-26T19:41:23.279Z,28.27
2018-12-26T19:44:11.339Z,29.77
2018-12-26T19:46:54.419Z,29.00
2018-12-26T19:49:42.208Z,27.57
2018-12-26T19:52:24.506Z,29.00
2018-12-26T19:55:12.547Z,26.77
2018-12-26T19:57:54.867Z,27.47
2018-12-26T20:00:42.866Z,28.53
2018-12-26T20:03:23.625Z,27.27
2018-12-26T20:06:11.953Z,27.00
2018-12-26T20:08:53.317Z,28.67
2018-12-26T20:14:48.646Z,29.30
2018-12-26T20:17:36.747Z,27.00
2018-12-26T20:20:19.715Z,26.33
2018-12-26T20:23:07.621Z,28.83
2018-12-26T20:25:50.787Z,29.43
2018-12-26T20:28:39.577Z,28.93
2018-12-26T20:31:22.503Z,29.17
2018-12-26T20:34:12.196Z,28.63
2018-12-26T20:36:55.349Z,29.83
2018-12-26T20:39:44.408Z,28.63
2018-12-26T20:42:27.394Z,28.07
2018-12-26T20:45:16.582Z,27.70
2018-12-26T20:47:59.343Z,28.27
2018-12-26T20:50:48.645Z,27.13
2018-12-26T20:53:31.521Z,27.27
2018-12-26T20:56:21.341Z,26.93
2018-12-26T20:59:04.032Z,25.43
2018-12-26T21:01:52.515Z,27.70
2018-12-26T21:04:35.094Z,26.63
2018-12-26T21:07:24.833Z,27.93
2018-12-26T21:10:25.422Z,27.00
2018-12-26T21:13:15.106Z,28.23
2018-12-26T21:15:57.433Z,27.70
2018-12-26T21:18:45.649Z,26.23
2018-12-26T21:21:27.739Z,34.47
2018-12-26T21:24:17.982Z,32.13
2018-12-26T21:27:01.388Z,27.73
2018-12-26T21:29:51.320Z,28.20
2018-12-26T21:32:34.542Z,24.73
2018-12-26T21:35:24.418Z,26.03
2018-12-26T21:38:07.099Z,25.13
2018-12-26T21:40:55.172Z,23.63
2018-12-26T21:43:37.566Z,24.07
2018-12-26T21:46:27.832Z,20.27
2018-12-26T21:49:10.829Z,20.90
2018-12-26T21:52:00.565Z,20.93
2018-12-26T21:54:41.753Z,20.60
2018-12-26T21:57:30.342Z,21.50
2018-12-26T22:00:12.998Z,22.47
2018-12-26T22:03:01.241Z,22.53
2018-12-26T22:05:42.152Z,23.43
2018-12-26T22:08:30.197Z,24.63
2018-12-26T22:11:11.385Z,24.60
2018-12-26T22:13:59.313Z,23.90
2018-12-26T22:16:41.087Z,25.23
2018-12-26T22:19:28.989Z,25.40
2018-12-26T22:22:09.999Z,24.03
2018-12-26T22:24:58.091Z,23.17
2018-12-26T22:27:38.821Z,22.27
2018-12-26T22:30:26.752Z,23.97
2018-12-26T22:33:08.122Z,22.50
2018-12-26T22:35:56.466Z,21.43
2018-12-26T22:38:37.735Z,22.27
2018-12-26T22:41:25.384Z,22.97
2018-12-26T22:44:05.937Z,22.80
2018-12-26T22:46:53.989Z,21.70
2018-12-26T22:49:35.242Z,19.63
2018-12-26T22:52:23.283Z,20.57
2018-12-26T22:55:04.704Z,21.00
2018-12-26T22:57:33.147Z,19.93
2018-12-26T23:00:15.936Z,20.33
2018-12-26T23:03:04.024Z,20.63
2018-12-26T23:05:45.201Z,21.00
2018-12-26T23:08:33.053Z,22.30
2018-12-26T23:11:15.374Z,20.53
2018-12-26T23:14:03.247Z,20.87
2018-12-26T23:16:43.798Z,21.53
2018-12-26T23:19:31.880Z,20.07
2018-12-26T23:22:13.228Z,19.67
2018-12-26T23:25:01.153Z,20.67
2018-12-26T23:27:42.201Z,21.23
2018-12-26T23:30:30.278Z,20.67
2018-12-26T23:33:12.170Z,29.97
2018-12-26T23:36:00.237Z,31.63
2018-12-26T23:38:42.773Z,22.13
2018-12-26T23:41:30.872Z,18.20
2018-12-26T23:44:11.642Z,17.50
2018-12-26T23:46:59.951Z,19.57
2018-12-26T23:49:40.721Z,18.27
2018-12-26T23:52:28.627Z,17.70
2018-12-26T23:55:09.609Z,17.40
2018-12-26T23:57:57.555Z,18.03
